createdAt,value
2019-02-26T00:01:23.456Z,2.63
2019-02-26T00:03:50.463Z,3.10
2019-02-26T00:06:18.552Z,3.50
2019-02-26T00:08:51.264Z,5.53
2019-02-26T00:11:16.847Z,3.63
2019-02-26T00:13:44.145Z,6.77
2019-02-26T00:16:14.962Z,3.07
2019-02-26T00:18:42.608Z,3.70
2019-02-26T00:21:10.176Z,4.90
2019-02-26T00:23:37.638Z,4.10
2019-02-26T00:26:05.038Z,3.33
2019-02-26T00:28:34.066Z,3.70
2019-02-26T00:31:03.759Z,3.93
2019-02-26T00:33:31.181Z,3.77
2019-02-26T00:35:58.576Z,4.47
2019-02-26T00:38:26.036Z,4.30
2019-02-26T00:40:54.975Z,6.00
2019-02-26T00:43:25.321Z,5.93
2019-02-26T00:45:53.338Z,4.93
2019-02-26T00:48:21.543Z,4.43
2019-02-26T00:50:48.931Z,3.70
2019-02-26T00:53:19.142Z,5.77
2019-02-26T00:55:45.664Z,3.07
2019-02-26T00:58:13.076Z,4.20
2019-02-26T01:00:40.621Z,3.70
2019-02-26T01:03:09.316Z,4.63
2019-02-26T01:05:39.143Z,5.70
2019-02-26T01:08:10.622Z,5.50
2019-02-26T01:10:38.741Z,3.87
2019-02-26T01:13:05.143Z,2.63
2019-02-26T01:15:34.071Z,3.70
2019-02-26T01:18:03.095Z,4.73
2019-02-26T01:20:32.004Z,2.90
2019-02-26T01:22:59.760Z,2.60
2019-02-26T01:25:27.150Z,3.50
2019-02-26T01:27:56.281Z,3.20
2019-02-26T01:30:26.294Z,3.50
2019-02-26T01:32:52.904Z,6.37
2019-02-26T01:35:20.291Z,7.60
2019-02-26T01:37:49.221Z,5.10
2019-02-26T01:40:20.605Z,3.90
2019-02-26T01:42:49.850Z,5.00
2019-02-26T01:45:19.394Z,7.13
2019-02-26T01:47:47.703Z,2.97
2019-02-26T01:50:16.149Z,2.80
2019-02-26T01:52:43.767Z,2.60
2019-02-26T01:55:11.252Z,2.50
2019-02-26T01:57:42.554Z,2.60
2019-02-26T02:00:15.773Z,4.10
2019-02-26T02:02:43.180Z,7.30
2019-02-26T02:05:10.779Z,4.10
2019-02-26T02:07:38.221Z,3.27
2019-02-26T02:10:06.642Z,3.27
2019-02-26T02:12:36.860Z,2.67
2019-02-26T02:15:05.113Z,2.97
2019-02-26T02:17:33.392Z,2.90
2019-02-26T02:20:05.226Z,4.43
2019-02-26T02:22:32.922Z,3.23
2019-02-26T02:25:00.455Z,6.03
2019-02-26T02:27:30.343Z,4.03
2019-02-26T02:29:57.801Z,2.83
2019-02-26T02:32:28.210Z,3.63
2019-02-26T02:34:58.246Z,2.57
2019-02-26T02:37:26.269Z,2.10
2019-02-26T02:39:53.016Z,3.43
2019-02-26T02:42:22.037Z,2.40
2019-02-26T02:44:52.549Z,7.63
2019-02-26T02:47:19.517Z,7.03
2019-02-26T02:49:46.914Z,4.20
2019-02-26T02:52:14.381Z,3.13
2019-02-26T02:54:44.200Z,3.47
2019-02-26T02:57:10.986Z,3.27
2019-02-26T02:59:41.732Z,2.97
2019-02-26T03:02:09.327Z,3.70
2019-02-26T03:04:37.980Z,2.30
2019-02-26T03:07:05.390Z,4.47
2019-02-26T03:09:37.114Z,5.07
2019-02-26T03:12:21.539Z,4.33
2019-02-26T03:14:48.906Z,3.83
2019-02-26T03:17:18.138Z,4.80
2019-02-26T03:19:45.543Z,4.77
2019-02-26T03:22:15.252Z,3.90
2019-02-26T03:24:42.146Z,4.50
2019-02-26T03:27:09.603Z,3.70
2019-02-26T03:29:37.011Z,5.93
2019-02-26T03:32:04.406Z,4.93
2019-02-26T03:34:31.937Z,3.57
2019-02-26T03:36:59.753Z,2.93
2019-02-26T03:39:28.550Z,2.90
2019-02-26T03:41:56.503Z,2.77
2019-02-26T03:44:23.952Z,2.50
2019-02-26T03:46:51.534Z,2.47
2019-02-26T03:49:18.998Z,4.60
2019-02-26T03:51:46.392Z,2.70
2019-02-26T03:54:13.776Z,2.33
2019-02-26T03:56:41.625Z,2.10
2019-02-26T03:59:11.705Z,2.40
2019-02-26T04:01:38.210Z,2.60
2019-02-26T04:04:07.674Z,2.57
2019-02-26T04:06:36.597Z,2.70
2019-02-26T04:09:05.715Z,2.43
2019-02-26T04:11:33.246Z,2.50
2019-02-26T04:14:00.938Z,2.80
2019-02-26T04:16:29.873Z,2.60
2019-02-26T04:18:57.871Z,2.43
2019-02-26T04:21:46.353Z,2.77
2019-02-26T04:24:13.832Z,2.77
2019-02-26T04:27:21.004Z,3.00
2019-02-26T04:30:18.948Z,3.43
2019-02-26T04:33:27.828Z,4.03
2019-02-26T04:36:16.917Z,3.90
2019-02-26T04:39:29.098Z,3.73
2019-02-26T04:42:05.561Z,3.53
2019-02-26T04:45:18.129Z,2.77
2019-02-26T04:47:46.659Z,2.97
2019-02-26T04:50:14.782Z,3.50
2019-02-26T04:52:43.520Z,3.20
2019-02-26T04:55:11.551Z,2.70
2019-02-26T04:57:41.990Z,3.73
2019-02-26T05:00:10.511Z,5.07
2019-02-26T05:02:37.670Z,4.90
2019-02-26T05:05:05.332Z,5.53
2019-02-26T05:07:35.574Z,6.77
2019-02-26T05:10:04.520Z,2.87
2019-02-26T05:12:34.930Z,3.20
2019-02-26T05:15:01.304Z,3.30
2019-02-26T05:17:30.772Z,4.80
2019-02-26T05:19:58.120Z,3.83
2019-02-26T05:22:27.679Z,4.20
2019-02-26T05:24:54.856Z,4.17
2019-02-26T05:27:24.812Z,3.40
2019-02-26T05:29:54.478Z,3.47
2019-02-26T05:32:21.796Z,3.53
2019-02-26T05:34:50.838Z,4.40
2019-02-26T05:37:18.393Z,3.50
2019-02-26T05:39:46.863Z,3.07
2019-02-26T05:42:16.940Z,5.73
2019-02-26T05:44:44.335Z,3.83
2019-02-26T05:47:13.182Z,2.83
2019-02-26T05:49:43.286Z,3.37
2019-02-26T05:52:10.243Z,2.80
2019-02-26T05:54:37.892Z,6.20
2019-02-26T05:57:06.738Z,3.70
2019-02-26T05:59:34.403Z,3.90
2019-02-26T06:02:02.063Z,3.00
2019-02-26T06:04:31.723Z,5.10
2019-02-26T06:07:02.119Z,3.80
2019-02-26T06:09:30.547Z,8.77
2019-02-26T06:11:57.485Z,4.03
2019-02-26T06:14:27.421Z,3.60
2019-02-26T06:16:55.764Z,3.80
2019-02-26T06:19:42.105Z,3.57
2019-02-26T06:22:14.513Z,3.13
2019-02-26T06:24:38.703Z,3.97
2019-02-26T06:27:08.636Z,4.10
2019-02-26T06:29:37.379Z,3.50
2019-02-26T06:32:12.716Z,4.30
2019-02-26T06:34:40.222Z,4.60
2019-02-26T06:37:19.913Z,3.50
2019-02-26T06:39:52.630Z,2.90
2019-02-26T06:42:18.183Z,3.43
2019-02-26T06:44:47.157Z,3.17
2019-02-26T06:47:14.840Z,2.60
2019-02-26T06:49:43.249Z,3.47
2019-02-26T06:52:13.027Z,3.90
2019-02-26T06:54:40.658Z,6.07
2019-02-26T06:57:08.064Z,4.17
2019-02-26T06:59:36.848Z,4.20
2019-02-26T07:02:04.404Z,4.80
2019-02-26T07:04:31.816Z,5.13
2019-02-26T07:06:59.424Z,7.57
2019-02-26T07:09:28.615Z,4.87
2019-02-26T07:11:56.017Z,7.70
2019-02-26T07:14:25.350Z,3.03
2019-02-26T07:16:53.199Z,3.00
2019-02-26T07:19:21.490Z,3.37
2019-02-26T07:21:51.329Z,3.20
2019-02-26T07:24:19.970Z,2.93
2019-02-26T07:26:48.294Z,3.83
2019-02-26T07:29:17.531Z,3.53
2019-02-26T07:31:47.164Z,4.20
2019-02-26T07:34:15.747Z,3.40
2019-02-26T07:36:45.600Z,3.03
2019-02-26T07:39:15.068Z,4.43
2019-02-26T07:41:44.510Z,4.10
2019-02-26T07:44:15.587Z,4.43
2019-02-26T07:46:42.459Z,4.27
2019-02-26T07:49:10.620Z,4.00
2019-02-26T07:51:38.646Z,10.60
2019-02-26T07:54:07.289Z,4.10
2019-02-26T07:56:36.357Z,7.70
2019-02-26T07:59:06.733Z,13.07
2019-02-26T08:01:32.995Z,7.23
2019-02-26T08:04:00.402Z,4.57
2019-02-26T08:06:29.303Z,3.73
2019-02-26T08:08:57.321Z,3.50
2019-02-26T08:11:24.719Z,3.50
2019-02-26T08:13:54.239Z,5.60
2019-02-26T08:16:23.054Z,5.10
2019-02-26T08:18:52.181Z,7.63
2019-02-26T08:21:21.765Z,4.67
2019-02-26T08:23:51.057Z,5.93
2019-02-26T08:26:20.276Z,5.30
2019-02-26T08:28:48.224Z,3.70
2019-02-26T08:31:17.927Z,6.70
2019-02-26T08:33:48.930Z,3.30
2019-02-26T08:36:14.431Z,6.77
2019-02-26T08:38:43.788Z,4.93
2019-02-26T08:41:11.058Z,7.23
2019-02-26T08:43:42.126Z,3.77
2019-02-26T08:46:09.328Z,6.60
2019-02-26T08:48:39.452Z,3.17
2019-02-26T08:51:10.701Z,3.23
2019-02-26T08:53:36.432Z,2.90
2019-02-26T08:56:04.118Z,3.40
2019-02-26T08:58:31.636Z,7.37
2019-02-26T09:00:59.366Z,2.90
2019-02-26T09:03:26.719Z,4.57
2019-02-26T09:05:56.351Z,3.10
2019-02-26T09:08:23.419Z,4.20
2019-02-26T09:10:50.827Z,2.23
2019-02-26T09:13:18.693Z,3.67
2019-02-26T09:15:46.251Z,3.53
2019-02-26T09:18:13.656Z,3.23
2019-02-26T09:20:41.059Z,3.67
2019-02-26T09:23:08.945Z,7.50
2019-02-26T09:25:36.345Z,4.87
2019-02-26T09:28:03.742Z,5.20
2019-02-26T09:30:33.407Z,3.17
2019-02-26T09:33:01.003Z,7.50
2019-02-26T09:35:31.324Z,3.47
2019-02-26T09:38:00.985Z,6.70
2019-02-26T09:40:30.368Z,3.10
2019-02-26T09:43:00.127Z,3.30
2019-02-26T09:45:30.023Z,5.07
2019-02-26T09:47:57.850Z,4.87
2019-02-26T09:50:25.739Z,2.80
2019-02-26T09:52:55.758Z,3.10
2019-02-26T09:55:22.676Z,2.73
2019-02-26T09:57:50.090Z,5.63
2019-02-26T10:00:22.098Z,3.00
2019-02-26T10:02:49.363Z,2.70
2019-02-26T10:05:18.297Z,2.20
2019-02-26T10:07:45.746Z,4.77
2019-02-26T10:10:14.887Z,3.10
2019-02-26T10:12:42.309Z,3.03
2019-02-26T10:15:10.684Z,3.30
2019-02-26T10:17:40.201Z,3.07
2019-02-26T10:20:10.476Z,2.40
2019-02-26T10:22:38.653Z,3.40
2019-02-26T10:25:07.952Z,5.00
2019-02-26T10:27:36.166Z,2.50
2019-02-26T10:30:08.445Z,3.20
2019-02-26T10:32:35.539Z,4.73
2019-02-26T10:35:04.614Z,2.87
2019-02-26T10:37:36.089Z,4.00
2019-02-26T10:40:03.473Z,3.37
2019-02-26T10:42:39.610Z,2.37
2019-02-26T10:45:00.515Z,4.70
2019-02-26T10:47:29.879Z,4.50
2019-02-26T10:49:57.070Z,4.43
2019-02-26T10:52:26.300Z,4.00
2019-02-26T10:54:53.755Z,3.00
2019-02-26T10:57:21.225Z,3.37
2019-02-26T10:59:48.757Z,3.70
2019-02-26T11:02:17.805Z,3.00
2019-02-26T11:04:46.721Z,4.63
2019-02-26T11:07:14.737Z,4.43
2019-02-26T11:09:44.693Z,4.60
2019-02-26T11:12:11.338Z,3.07
2019-02-26T11:14:39.571Z,2.20
2019-02-26T11:17:08.055Z,3.03
2019-02-26T11:19:38.428Z,5.73
2019-02-26T11:22:05.351Z,2.60
2019-02-26T11:24:33.727Z,4.20
2019-02-26T11:27:01.987Z,6.43
2019-02-26T11:29:30.461Z,3.90
2019-02-26T11:31:58.344Z,3.03
2019-02-26T11:34:27.844Z,2.70
2019-02-26T11:36:56.183Z,3.93
2019-02-26T11:39:24.219Z,3.50
2019-02-26T11:41:53.758Z,3.03
2019-02-26T11:44:23.552Z,3.40
2019-02-26T11:46:51.363Z,5.00
2019-02-26T11:49:21.818Z,2.83
2019-02-26T11:51:49.633Z,3.37
2019-02-26T11:54:17.694Z,3.30
2019-02-26T11:56:47.152Z,7.73
2019-02-26T11:59:16.711Z,3.63
2019-02-26T12:01:43.985Z,2.53
2019-02-26T12:04:14.070Z,7.37
2019-02-26T12:06:40.643Z,3.10
2019-02-26T12:09:10.412Z,2.50
2019-02-26T12:11:37.265Z,4.67
2019-02-26T12:14:04.887Z,5.00
2019-02-26T12:16:32.271Z,3.40
2019-02-26T12:19:01.429Z,2.90
2019-02-26T12:21:29.924Z,2.67
2019-02-26T12:24:00.564Z,4.50
2019-02-26T12:26:28.442Z,3.07
2019-02-26T12:28:57.739Z,3.40
2019-02-26T12:31:28.371Z,2.27
2019-02-26T12:33:55.328Z,3.10
2019-02-26T12:36:23.674Z,2.20
2019-02-26T12:38:53.583Z,4.00
2019-02-26T12:41:21.435Z,2.97
2019-02-26T12:43:49.106Z,3.33
2019-02-26T12:46:16.512Z,3.27
2019-02-26T12:48:46.517Z,9.00
2019-02-26T12:51:13.301Z,3.03
2019-02-26T12:53:46.789Z,4.63
2019-02-26T12:56:14.124Z,3.83
2019-02-26T12:58:44.323Z,3.10
2019-02-26T13:01:11.890Z,2.20
2019-02-26T13:03:42.571Z,2.70
2019-02-26T13:06:11.449Z,4.57
2019-02-26T13:08:39.791Z,4.10
2019-02-26T13:11:06.972Z,4.23
2019-02-26T13:13:34.467Z,5.97
2019-02-26T13:16:01.883Z,9.00
2019-02-26T13:18:29.629Z,3.73
2019-02-26T13:20:59.706Z,7.63
2019-02-26T13:23:26.579Z,6.60
2019-02-26T13:25:54.103Z,6.20
2019-02-26T13:28:29.175Z,3.13
2019-02-26T13:30:50.915Z,5.80
2019-02-26T13:33:26.384Z,4.57
2019-02-26T13:35:52.465Z,8.63
2019-02-26T13:38:24.532Z,4.60
2019-02-26T13:40:46.967Z,7.77
2019-02-26T13:43:14.565Z,6.60
2019-02-26T13:45:42.569Z,3.20
2019-02-26T13:48:10.056Z,7.83
2019-02-26T13:50:39.115Z,4.53
2019-02-26T13:53:06.609Z,3.37
2019-02-26T13:55:34.151Z,2.03
2019-02-26T13:58:04.794Z,4.13
2019-02-26T14:00:30.923Z,2.00
2019-02-26T14:02:58.307Z,5.53
2019-02-26T14:05:25.754Z,3.53
2019-02-26T14:07:53.172Z,5.43
2019-02-26T14:10:20.596Z,3.27
2019-02-26T14:12:48.231Z,4.77
2019-02-26T14:15:20.116Z,7.97
2019-02-26T14:17:47.504Z,4.20
2019-02-26T14:20:14.962Z,2.30
2019-02-26T14:22:42.353Z,2.43
2019-02-26T14:25:09.971Z,4.97
2019-02-26T14:27:37.399Z,4.33
2019-02-26T14:30:05.975Z,3.97
2019-02-26T14:32:33.380Z,2.87
2019-02-26T14:35:00.825Z,3.00
2019-02-26T14:37:28.234Z,3.23
2019-02-26T14:39:55.543Z,2.20
2019-02-26T14:42:23.052Z,5.03
2019-02-26T14:44:51.044Z,4.90
2019-02-26T14:47:18.417Z,12.23
2019-02-26T14:49:45.855Z,5.47
2019-02-26T14:52:13.271Z,1.90
2019-02-26T14:54:40.671Z,3.43
2019-02-26T14:57:08.561Z,1.60
2019-02-26T14:59:36.012Z,2.97
2019-02-26T15:02:03.408Z,9.47
2019-02-26T15:04:30.840Z,3.90
2019-02-26T15:06:58.287Z,3.10
2019-02-26T15:09:25.701Z,1.93
2019-02-26T15:11:53.493Z,2.37
2019-02-26T15:14:20.978Z,1.97
2019-02-26T15:16:48.363Z,7.10
2019-02-26T15:19:15.817Z,15.47
2019-02-26T15:21:43.207Z,9.17
2019-02-26T15:24:10.824Z,7.33
2019-02-26T15:26:38.437Z,2.90
2019-02-26T15:29:05.848Z,1.80
2019-02-26T15:31:33.265Z,3.33
2019-02-26T15:34:00.702Z,2.37
2019-02-26T15:36:28.117Z,2.03
2019-02-26T15:38:55.510Z,4.63
2019-02-26T15:41:23.109Z,3.60
2019-02-26T15:43:50.594Z,4.23
2019-02-26T15:46:18.171Z,3.20
2019-02-26T15:48:45.790Z,2.10
2019-02-26T15:51:14.646Z,1.50
2019-02-26T15:53:42.581Z,4.70
2019-02-26T15:56:10.024Z,4.63
2019-02-26T15:58:37.440Z,4.17
2019-02-26T16:01:09.285Z,4.73
2019-02-26T16:03:36.997Z,3.43
2019-02-26T16:06:04.420Z,3.83
2019-02-26T16:08:34.650Z,5.43
2019-02-26T16:11:01.101Z,3.83
2019-02-26T16:13:28.509Z,5.93
2019-02-26T16:15:56.120Z,4.60
2019-02-26T16:18:23.591Z,5.30
2019-02-26T16:20:50.991Z,4.10
2019-02-26T16:23:18.397Z,6.80
2019-02-26T16:25:46.000Z,9.73
2019-02-26T16:28:13.408Z,4.70
2019-02-26T16:30:40.803Z,4.87
2019-02-26T16:33:08.245Z,5.87
2019-02-26T16:35:35.647Z,6.53
2019-02-26T16:38:03.038Z,6.10
2019-02-26T16:40:32.200Z,14.13
2019-02-26T16:43:00.097Z,6.80
2019-02-26T16:45:27.920Z,11.67
2019-02-26T16:47:57.290Z,6.33
2019-02-26T16:50:24.969Z,6.50
2019-02-26T16:52:52.395Z,4.10
2019-02-26T16:55:20.330Z,10.73
2019-02-26T16:57:48.035Z,7.93
2019-02-26T17:00:17.240Z,6.83
2019-02-26T17:02:44.870Z,9.83
2019-02-26T17:05:14.979Z,8.50
2019-02-26T17:07:41.683Z,14.77
2019-02-26T17:10:11.285Z,19.40
2019-02-26T17:12:38.678Z,29.63
2019-02-26T17:15:09.578Z,13.33
2019-02-26T17:17:37.424Z,7.43
2019-02-26T17:20:06.277Z,6.50
2019-02-26T17:22:35.607Z,9.03
2019-02-26T17:25:03.232Z,9.47
2019-02-26T17:27:50.211Z,7.33
2019-02-26T17:30:18.198Z,12.97
2019-02-26T17:32:47.397Z,11.17
2019-02-26T17:35:15.314Z,5.77
2019-02-26T17:37:42.941Z,18.13
2019-02-26T17:40:11.547Z,26.30
2019-02-26T17:42:39.169Z,18.53
2019-02-26T17:45:08.963Z,15.60
2019-02-26T17:47:36.354Z,22.73
2019-02-26T17:50:05.081Z,13.80
2019-02-26T17:52:32.627Z,12.40
2019-02-26T17:55:00.029Z,13.13
2019-02-26T17:57:27.431Z,18.50
2019-02-26T17:59:55.014Z,12.80
2019-02-26T18:02:22.411Z,9.80
2019-02-26T18:04:49.877Z,9.43
2019-02-26T18:07:38.598Z,11.50
2019-02-26T18:10:12.482Z,11.10
2019-02-26T18:12:42.312Z,11.70
2019-02-26T18:15:08.677Z,10.73
2019-02-26T18:17:36.136Z,8.37
2019-02-26T18:20:04.407Z,9.20
2019-02-26T18:22:32.048Z,11.17
2019-02-26T18:24:59.447Z,10.27
2019-02-26T18:27:27.703Z,15.87
2019-02-26T18:29:56.471Z,16.13
2019-02-26T18:32:24.000Z,18.07
2019-02-26T18:34:51.398Z,12.87
2019-02-26T18:37:20.440Z,18.40
2019-02-26T18:39:48.072Z,10.37
2019-02-26T18:42:15.653Z,13.77
2019-02-26T18:44:43.160Z,12.97
2019-02-26T18:47:10.571Z,15.53
2019-02-26T18:49:38.111Z,19.20
2019-02-26T18:52:08.484Z,15.23
2019-02-26T18:54:34.794Z,15.93
2019-02-26T18:57:02.204Z,26.93
2019-02-26T18:59:29.971Z,17.30
2019-02-26T19:01:57.380Z,18.90
2019-02-26T19:04:24.795Z,20.20
2019-02-26T19:06:52.408Z,16.80
2019-02-26T19:09:20.194Z,15.87
2019-02-26T19:11:47.699Z,14.23
2019-02-26T19:14:15.150Z,7.03
2019-02-26T19:16:42.560Z,7.80
2019-02-26T19:19:10.009Z,7.40
2019-02-26T19:21:37.625Z,9.40
2019-02-26T19:24:05.200Z,7.60
2019-02-26T19:26:32.783Z,10.50
2019-02-26T19:29:00.347Z,15.43
2019-02-26T19:31:27.761Z,21.03
2019-02-26T19:33:55.454Z,24.60
2019-02-26T19:36:23.088Z,21.80
2019-02-26T19:38:50.578Z,18.30
2019-02-26T19:41:18.084Z,27.67
2019-02-26T19:43:45.672Z,22.30
2019-02-26T19:46:16.910Z,28.37
2019-02-26T19:48:42.321Z,30.73
2019-02-26T19:51:10.007Z,22.70
2019-02-26T19:53:37.623Z,21.07
2019-02-26T19:56:05.168Z,27.47
2019-02-26T19:58:33.008Z,25.63
2019-02-26T20:01:00.532Z,23.53
2019-02-26T20:03:39.216Z,21.63
2019-02-26T20:05:57.341Z,17.87
2019-02-26T20:08:24.954Z,23.57
2019-02-26T20:10:54.101Z,19.90
2019-02-26T20:13:21.894Z,21.03
2019-02-26T20:15:49.367Z,20.63
2019-02-26T20:18:20.750Z,16.03
2019-02-26T20:20:46.635Z,21.50
2019-02-26T20:23:14.250Z,20.37
2019-02-26T20:25:42.747Z,18.37
2019-02-26T20:28:10.981Z,25.57
2019-02-26T20:30:38.452Z,21.00
2019-02-26T20:33:05.857Z,24.80
2019-02-26T20:35:33.392Z,20.40
2019-02-26T20:38:00.827Z,23.00
2019-02-26T20:40:28.280Z,21.50
2019-02-26T20:42:55.776Z,29.10
2019-02-26T20:45:23.411Z,21.57
2019-02-26T20:47:50.831Z,23.00
2019-02-26T20:50:21.244Z,26.80
2019-02-26T20:52:47.532Z,22.60
2019-02-26T20:55:16.700Z,19.83
2019-02-26T20:57:45.923Z,21.10
2019-02-26T21:00:14.881Z,25.63
2019-02-26T21:02:42.303Z,24.30
2019-02-26T21:05:10.015Z,20.80
2019-02-26T21:07:37.425Z,19.57
2019-02-26T21:10:05.597Z,16.50
2019-02-26T21:12:34.853Z,21.70
2019-02-26T21:15:02.395Z,18.33
2019-02-26T21:17:29.848Z,14.53
2019-02-26T21:19:57.363Z,26.00
2019-02-26T21:22:24.768Z,18.57
2019-02-26T21:24:52.167Z,28.60
2019-02-26T21:27:19.615Z,16.63
2019-02-26T21:29:47.008Z,24.70
2019-02-26T21:32:14.432Z,16.53
2019-02-26T21:34:47.285Z,20.87
2019-02-26T21:37:11.313Z,18.20
2019-02-26T21:39:38.728Z,13.37
2019-02-26T21:42:06.272Z,15.23
2019-02-26T21:44:33.600Z,17.27
2019-02-26T21:47:01.010Z,14.50
2019-02-26T21:49:28.455Z,13.13
2019-02-26T21:51:55.889Z,14.30
2019-02-26T21:54:24.808Z,11.13
2019-02-26T21:56:52.683Z,14.33
2019-02-26T21:59:20.079Z,13.43
2019-02-26T22:01:47.482Z,12.47
2019-02-26T22:04:14.975Z,12.27
2019-02-26T22:06:44.449Z,9.93
2019-02-26T22:09:11.639Z,16.13
2019-02-26T22:11:39.290Z,11.13
2019-02-26T22:14:06.696Z,10.23
2019-02-26T22:16:34.091Z,15.27
2019-02-26T22:19:01.527Z,9.10
2019-02-26T22:21:28.907Z,10.60
2019-02-26T22:23:56.315Z,11.87
2019-02-26T22:26:25.935Z,14.13
2019-02-26T22:28:53.122Z,14.30
2019-02-26T22:31:20.784Z,11.27
2019-02-26T22:33:48.209Z,9.47
2019-02-26T22:36:15.594Z,9.00
2019-02-26T22:38:46.150Z,9.53
2019-02-26T22:41:12.943Z,15.23
2019-02-26T22:43:40.344Z,7.97
2019-02-26T22:46:07.750Z,8.27
2019-02-26T22:48:35.183Z,8.10
2019-02-26T22:51:03.692Z,9.50
2019-02-26T22:53:31.086Z,9.00
2019-02-26T22:55:58.731Z,10.03
2019-02-26T22:58:26.123Z,16.00
2019-02-26T23:01:20.191Z,17.00
2019-02-26T23:03:47.851Z,12.27
2019-02-26T23:06:15.327Z,12.50
2019-02-26T23:08:44.761Z,12.50
2019-02-26T23:11:14.189Z,9.70
2019-02-26T23:13:41.705Z,10.63
2019-02-26T23:16:09.271Z,14.03
2019-02-26T23:18:36.810Z,15.93
2019-02-26T23:21:05.096Z,9.40
2019-02-26T23:23:32.754Z,10.67
2019-02-26T23:26:00.159Z,10.53
2019-02-26T23:28:27.641Z,10.20
2019-02-26T23:30:55.086Z,12.93
2019-02-26T23:33:22.466Z,13.60
2019-02-26T23:35:49.849Z,9.80
2019-02-26T23:38:17.297Z,10.37
2019-02-26T23:40:44.687Z,10.03
2019-02-26T23:43:12.530Z,18.20
2019-02-26T23:45:40.011Z,8.40
2019-02-26T23:48:08.058Z,8.97
2019-02-26T23:50:36.207Z,7.03
2019-02-26T23:53:04.211Z,6.43
2019-02-26T23:55:31.607Z,5.77
2019-02-26T23:57:59.216Z,5.60
